Time;durP1;ratioP1;P1;durP2;ratioP2;P2;SDS_P1;SDS_P2;PMS_P1;PMS_P2;Temp;Humidity;BMP_temperature;BMP_pressure;BME280_temperature;BME280_humidity;BME280_pressure;Samples;Min_cycle;Max_cycle;Signal;HPM_P1;HPM_P2
2021/04/27 00:01:14;;;;;;;10.20;6.28;;;13.20;55.60;;;;;;5013059;28;20101;-70
2021/04/27 00:03:40;;;;;;;10.68;6.57;;;13.20;55.30;;;;;;5012987;28;20108;-70
2021/04/27 00:06:06;;;;;;;13.48;6.93;;;13.20;55.50;;;;;;5012806;28;20080;-69
2021/04/27 00:08:32;;;;;;;12.13;6.78;;;13.10;55.90;;;;;;5012809;28;20364;-70
2021/04/27 00:10:58;;;;;;;9.40;7.00;;;13.10;55.80;;;;;;5012866;28;20018;-70
2021/04/27 00:13:25;;;;;;;10.43;7.03;;;13.10;55.90;;;;;;5013307;28;20029;-70
2021/04/27 00:15:51;;;;;;;14.45;7.93;;;13.10;56.00;;;;;;5013195;28;20026;-69
2021/04/27 00:18:16;;;;;;;13.57;7.75;;;13.10;56.30;;;;;;5012552;28;20048;-70
2021/04/27 00:20:42;;;;;;;11.35;7.35;;;13.10;56.50;;;;;;5012599;28;20057;-70
2021/04/27 00:23:08;;;;;;;11.02;7.65;;;13.00;56.60;;;;;;5013086;28;20030;-70
2021/04/27 00:25:34;;;;;;;12.82;7.80;;;13.00;56.70;;;;;;5017053;28;20026;-70
2021/04/27 00:27:59;;;;;;;11.52;7.88;;;13.00;56.80;;;;;;5016534;28;20068;-70
2021/04/27 00:30:27;;;;;;;13.15;7.80;;;12.90;56.80;;;;;;5015851;28;20029;-70
2021/04/27 00:32:53;;;;;;;13.25;8.30;;;12.90;57.10;;;;;;5016385;28;20026;-70
2021/04/27 00:35:19;;;;;;;11.77;7.65;;;12.90;57.10;;;;;;5016414;28;20037;-70
2021/04/27 00:37:45;;;;;;;12.10;7.72;;;12.80;57.20;;;;;;5016400;28;20037;-70
2021/04/27 00:40:13;;;;;;;10.00;7.38;;;12.80;57.00;;;;;;5016722;28;20522;-70
2021/04/27 00:42:41;;;;;;;11.93;7.72;;;12.80;56.90;;;;;;5016384;28;20604;-70
2021/04/27 00:45:10;;;;;;;9.82;7.30;;;12.80;57.00;;;;;;5016325;28;20154;-70
2021/04/27 00:47:36;;;;;;;10.73;7.68;;;12.80;57.20;;;;;;5016583;28;20466;-70
2021/04/27 00:50:03;;;;;;;16.30;7.40;;;12.80;57.40;;;;;;5016568;28;20021;-70
2021/04/27 00:52:29;;;;;;;9.15;7.00;;;12.70;57.40;;;;;;5016178;28;20105;-70
2021/04/27 00:54:55;;;;;;;11.70;7.70;;;12.70;58.20;;;;;;5016346;28;20435;-70
2021/04/27 00:57:21;;;;;;;11.18;7.25;;;12.70;57.40;;;;;;5016463;28;20088;-70
2021/04/27 00:59:47;;;;;;;11.43;7.57;;;12.70;57.40;;;;;;5013247;28;20102;-70
2021/04/27 01:02:13;;;;;;;12.00;7.63;;;12.70;57.70;;;;;;5012800;28;20105;-69
2021/04/27 01:04:39;;;;;;;14.70;7.57;;;12.70;58.50;;;;;;5014544;28;20057;-70
2021/04/27 01:07:06;;;;;;;12.88;7.70;;;12.60;58.00;;;;;;5014415;28;20407;-70
2021/04/27 01:09:42;;;;;;;11.05;7.75;;;12.60;58.20;;;;;;5016220;28;20022;-69
2021/04/27 01:12:20;;;;;;;12.18;7.75;;;12.60;58.20;;;;;;5014954;28;20037;-70
2021/04/27 01:14:53;;;;;;;12.70;8.02;;;12.60;58.30;;;;;;5014591;28;20030;-69
2021/04/27 01:17:20;;;;;;;13.38;7.40;;;12.50;58.90;;;;;;5015659;28;20137;-70
2021/04/27 01:20:15;;;;;;;10.13;7.88;;;12.50;58.70;;;;;;5015960;28;20029;-70
2021/04/27 01:23:02;;;;;;;12.82;8.25;;;12.50;58.40;;;;;;5015988;28;20033;-70
2021/04/27 01:25:37;;;;;;;12.95;7.93;;;12.40;58.60;;;;;;5015820;28;20105;-70
2021/04/27 01:28:06;;;;;;;10.52;7.57;;;12.40;58.60;;;;;;5015291;28;20474;-70
2021/04/27 01:30:39;;;;;;;10.93;8.10;;;12.40;58.80;;;;;;5015417;28;20030;-70
2021/04/27 01:33:12;;;;;;;12.27;7.47;;;12.40;59.10;;;;;;5015978;28;20021;-69
2021/04/27 01:35:39;;;;;;;14.80;7.53;;;12.30;59.20;;;;;;5015424;28;20026;-70
2021/04/27 01:38:06;;;;;;;11.43;8.13;;;12.30;59.10;;;;;;5015365;28;20088;-70
2021/04/27 01:40:32;;;;;;;14.98;8.25;;;12.40;58.90;;;;;;5015226;28;20073;-70
2021/04/27 01:43:00;;;;;;;10.27;7.97;;;12.30;59.10;;;;;;5015414;28;20060;-70
2021/04/27 01:45:27;;;;;;;10.07;7.93;;;12.40;58.60;;;;;;5014339;28;20089;-69
2021/04/27 01:47:55;;;;;;;11.75;8.10;;;12.30;59.10;;;;;;5015243;28;20033;-69
2021/04/27 01:50:21;;;;;;;11.73;7.53;;;12.40;59.00;;;;;;5015019;28;20470;-70
2021/04/27 01:52:49;;;;;;;10.35;8.02;;;12.40;58.70;;;;;;5014689;28;20050;-70
2021/04/27 01:55:16;;;;;;;13.07;7.28;;;12.30;59.40;;;;;;5014539;28;20109;-70
2021/04/27 01:57:41;;;;;;;13.23;8.38;;;12.40;60.00;;;;;;5014271;28;20060;-70
2021/04/27 02:00:10;;;;;;;12.60;8.00;;;12.40;59.30;;;;;;5015045;28;20061;-70
2021/04/27 02:02:36;;;;;;;10.07;7.50;;;12.30;59.40;;;;;;5014755;28;20033;-70
2021/04/27 02:05:04;;;;;;;13.20;7.60;;;12.30;60.00;;;;;;5015076;28;20033;-70
2021/04/27 02:07:33;;;;;;;12.20;7.63;;;12.30;60.10;;;;;;5014597;28;20457;-70
2021/04/27 02:10:05;;;;;;;11.65;7.70;;;12.30;59.90;;;;;;5014953;28;20092;-70
2021/04/27 02:12:32;;;;;;;13.38;7.68;;;12.30;59.90;;;;;;5014809;28;20026;-69
2021/04/27 02:14:58;;;;;;;10.48;7.47;;;12.30;60.10;;;;;;5014521;28;20026;-69
2021/04/27 02:17:31;;;;;;;9.18;7.63;;;12.40;61.40;;;;;;5014746;28;20050;-69
2021/04/27 02:19:57;;;;;;;12.43;7.38;;;12.40;60.10;;;;;;5014546;28;20386;-70
2021/04/27 02:22:27;;;;;;;10.27;7.65;;;12.40;59.90;;;;;;5014172;28;20022;-70
2021/04/27 02:24:54;;;;;;;14.93;8.02;;;12.40;59.90;;;;;;5014630;28;20040;-69
2021/04/27 02:27:22;;;;;;;12.82;7.40;;;12.40;59.80;;;;;;5014467;28;20386;-70
2021/04/27 02:29:49;;;;;;;11.43;8.07;;;12.40;59.60;;;;;;5014312;28;20575;-69
2021/04/27 02:32:15;;;;;;;14.45;7.35;;;12.40;61.30;;;;;;5014537;28;20033;-70
2021/04/27 02:34:43;;;;;;;11.82;7.72;;;12.40;61.00;;;;;;5014123;28;20030;-70
2021/04/27 02:37:09;;;;;;;9.02;7.35;;;12.40;60.70;;;;;;5014452;28;20049;-69
2021/04/27 02:39:35;;;;;;;11.70;7.50;;;12.30;60.80;;;;;;5013713;28;20058;-71
2021/04/27 02:42:03;;;;;;;11.73;7.63;;;12.30;60.30;;;;;;5014005;28;20022;-70
2021/04/27 02:44:29;;;;;;;11.43;7.70;;;12.30;60.40;;;;;;5014225;28;20053;-70
2021/04/27 02:46:55;;;;;;;10.65;7.00;;;12.30;59.60;;;;;;5013653;28;20021;-70
2021/04/27 02:49:21;;;;;;;14.68;7.78;;;12.30;60.60;;;;;;5012915;28;20116;-70
2021/04/27 02:51:46;;;;;;;13.65;8.18;;;12.30;60.50;;;;;;5014209;28;20033;-70
2021/04/27 02:54:12;;;;;;;9.93;7.40;;;12.30;61.10;;;;;;5014295;28;20470;-70
2021/04/27 02:56:38;;;;;;;12.20;7.72;;;12.30;60.60;;;;;;5014192;28;20029;-70
2021/04/27 02:59:06;;;;;;;9.60;6.78;;;12.30;60.10;;;;;;5013920;28;20449;-70
2021/04/27 03:01:32;;;;;;;13.77;7.80;;;12.30;60.60;;;;;;5013884;28;20040;-70
2021/04/27 03:03:58;;;;;;;11.32;8.05;;;12.30;60.80;;;;;;5013870;28;20034;-69
2021/04/27 03:06:24;;;;;;;13.90;7.40;;;12.30;60.60;;;;;;5014152;28;20039;-70
2021/04/27 03:08:49;;;;;;;11.93;7.57;;;12.40;60.70;;;;;;5013981;28;20033;-70
2021/04/27 03:11:15;;;;;;;11.07;7.60;;;12.40;60.30;;;;;;5013562;28;20034;-70
2021/04/27 03:13:41;;;;;;;25.67;7.82;;;12.30;60.10;;;;;;5013916;28;20029;-70
2021/04/27 03:16:07;;;;;;;45.60;8.48;;;12.40;59.70;;;;;;5013627;28;20049;-70
2021/04/27 03:18:33;;;;;;;35.97;8.43;;;12.40;59.60;;;;;;5013129;28;20041;-69
2021/04/27 03:20:58;;;;;;;25.95;8.10;;;12.40;59.80;;;;;;5013353;28;20481;-70
2021/04/27 03:23:24;;;;;;;19.05;7.57;;;12.40;59.70;;;;;;5013547;28;20099;-70
2021/04/27 03:25:50;;;;;;;13.77;7.45;;;12.40;59.90;;;;;;5013864;28;20037;-69
2021/04/27 03:28:16;;;;;;;10.57;6.93;;;12.40;59.40;;;;;;5013604;28;20433;-70
2021/04/27 03:30:43;;;;;;;14.35;7.65;;;12.40;58.60;;;;;;5013340;28;20022;-69
2021/04/27 03:33:09;;;;;;;13.82;7.38;;;12.40;58.60;;;;;;5013161;28;20029;-69
2021/04/27 03:35:34;;;;;;;9.93;6.75;;;12.40;58.80;;;;;;5013107;28;20026;-71
2021/04/27 03:38:01;;;;;;;13.75;6.47;;;12.40;58.50;;;;;;5013471;28;20037;-72
2021/04/27 03:40:26;;;;;;;22.00;6.68;;;12.40;58.60;;;;;;5012763;28;20045;-69
2021/04/27 03:42:52;;;;;;;15.80;7.18;;;12.40;58.50;;;;;;5013469;28;20064;-70
2021/04/27 03:45:21;;;;;;;20.45;6.93;;;12.40;58.40;;;;;;5013190;28;20483;-70
2021/04/27 03:47:48;;;;;;;17.13;6.65;;;12.30;58.30;;;;;;5012550;28;20068;-70
2021/04/27 03:50:19;;;;;;;11.82;7.10;;;12.40;58.70;;;;;;5013125;28;20071;-70
2021/04/27 03:52:45;;;;;;;10.88;6.60;;;12.40;58.80;;;;;;5013055;28;20026;-70
2021/04/27 03:55:11;;;;;;;8.70;6.57;;;12.40;58.40;;;;;;5012842;28;20026;-70
2021/04/27 03:57:37;;;;;;;12.05;6.93;;;12.40;58.30;;;;;;5011832;28;20386;-70
2021/04/27 04:00:07;;;;;;;12.82;6.80;;;12.40;58.00;;;;;;5012022;28;20026;-70
2021/04/27 04:02:33;;;;;;;11.43;7.00;;;12.40;58.00;;;;;;5013106;28;20502;-69
2021/04/27 04:04:59;;;;;;;8.10;6.47;;;12.40;58.00;;;;;;5013278;28;20018;-69
2021/04/27 04:07:25;;;;;;;11.60;6.75;;;12.50;57.90;;;;;;5012847;28;20095;-70
2021/04/27 04:09:50;;;;;;;7.90;6.38;;;12.50;58.00;;;;;;5013091;28;20506;-69
2021/04/27 04:12:16;;;;;;;13.50;6.95;;;12.40;58.60;;;;;;5012812;28;20084;-70
2021/04/27 04:14:42;;;;;;;31.67;7.60;;;12.40;60.10;;;;;;5012616;28;20530;-70
2021/04/27 04:17:07;;;;;;;22.63;8.15;;;12.40;62.00;;;;;;5012807;28;20398;-69
2021/04/27 04:19:33;;;;;;;13.98;8.60;;;12.40;63.90;;;;;;5012828;28;20044;-70
2021/04/27 04:21:59;;;;;;;13.20;8.73;;;12.40;65.70;;;;;;5012664;28;20097;-70
2021/04/27 04:24:25;;;;;;;10.18;7.97;;;12.40;65.40;;;;;;5012623;28;20427;-69
2021/04/27 04:26:51;;;;;;;13.70;7.88;;;12.30;66.50;;;;;;5011846;28;20172;-70
2021/04/27 04:29:16;;;;;;;15.30;9.55;;;12.30;67.00;;;;;;5012503;28;20026;-70
2021/04/27 04:31:42;;;;;;;10.73;8.82;;;12.30;68.90;;;;;;5011992;28;20022;-69
2021/04/27 04:34:07;;;;;;;12.98;9.43;;;12.20;69.20;;;;;;5012542;28;20018;-69
2021/04/27 04:36:33;;;;;;;12.70;8.95;;;12.20;69.60;;;;;;5012275;28;20502;-70
2021/04/27 04:38:59;;;;;;;11.57;8.82;;;12.20;69.50;;;;;;5012341;28;20498;-71
2021/04/27 04:41:24;;;;;;;15.05;10.20;;;12.10;70.90;;;;;;5012497;28;20025;-70
2021/04/27 04:43:50;;;;;;;11.43;9.52;;;12.10;71.70;;;;;;5012319;28;20054;-70
2021/04/27 04:46:16;;;;;;;11.93;9.27;;;12.10;72.00;;;;;;5012807;28;20033;-70
2021/04/27 04:48:42;;;;;;;13.40;9.43;;;12.00;71.80;;;;;;5012717;28;20034;-69
2021/04/27 04:51:08;;;;;;;13.60;10.32;;;12.00;72.10;;;;;;5012698;28;20038;-69
2021/04/27 04:53:33;;;;;;;17.92;9.55;;;12.00;73.80;;;;;;5012454;28;20122;-69
2021/04/27 04:55:59;;;;;;;12.82;9.30;;;12.00;74.00;;;;;;5012733;28;20472;-70
2021/04/27 04:58:25;;;;;;;14.98;9.35;;;12.00;72.80;;;;;;5012082;28;20041;-70
2021/04/27 05:00:50;;;;;;;12.95;9.00;;;12.00;72.30;;;;;;5012512;28;20033;-70
2021/04/27 05:03:16;;;;;;;14.70;9.93;;;12.00;72.10;;;;;;5012622;28;20057;-70
2021/04/27 05:05:42;;;;;;;12.13;10.00;;;12.00;72.70;;;;;;5012432;28;20026;-70
2021/04/27 05:08:32;;;;;;;14.50;9.52;;;12.00;74.20;;;;;;5012461;28;20113;-70
2021/04/27 05:10:56;;;;;;;15.32;9.20;;;12.00;74.50;;;;;;5015283;28;20464;-70
2021/04/27 05:13:22;;;;;;;12.15;8.98;;;12.00;75.20;;;;;;5016101;28;20022;-69
2021/04/27 05:15:48;;;;;;;13.27;10.27;;;12.00;74.50;;;;;;5016124;28;20053;-70
2021/04/27 05:18:15;;;;;;;12.55;9.85;;;12.00;75.10;;;;;;5015955;28;20084;-70
2021/04/27 05:20:41;;;;;;;12.27;10.45;;;11.90;76.30;;;;;;5015741;28;20034;-72
2021/04/27 05:23:06;;;;;;;12.05;9.57;;;11.90;76.10;;;;;;5015874;28;20083;-69
2021/04/27 05:25:32;;;;;;;11.05;9.38;;;11.90;74.60;;;;;;5016086;28;20034;-70
2021/04/27 05:27:58;;;;;;;14.13;10.15;;;12.00;74.00;;;;;;5015783;28;20034;-70
2021/04/27 05:30:24;;;;;;;11.93;8.65;;;12.00;73.40;;;;;;5015735;28;20036;-69
2021/04/27 05:32:51;;;;;;;12.02;8.50;;;12.00;73.20;;;;;;5015754;28;20036;-70
2021/04/27 05:35:17;;;;;;;11.82;8.82;;;11.90;72.70;;;;;;5015676;28;20029;-69
2021/04/27 05:37:43;;;;;;;12.38;9.40;;;12.00;73.60;;;;;;5015381;28;20048;-70
2021/04/27 05:40:09;;;;;;;10.77;8.60;;;11.90;74.50;;;;;;5015350;28;20054;-70
2021/04/27 05:42:35;;;;;;;14.63;9.63;;;11.90;73.90;;;;;;5015330;28;20026;-69
2021/04/27 05:45:02;;;;;;;12.48;9.77;;;12.00;73.60;;;;;;5015645;28;20033;-70
2021/04/27 05:47:28;;;;;;;11.93;9.35;;;12.00;72.80;;;;;;5015538;28;20040;-69
2021/04/27 05:49:54;;;;;;;11.40;9.80;;;12.00;74.00;;;;;;5015573;28;20026;-69
2021/04/27 05:52:20;;;;;;;12.40;9.68;;;12.00;74.00;;;;;;5015095;28;20057;-70
2021/04/27 05:54:46;;;;;;;9.05;7.72;;;12.00;74.00;;;;;;5015212;28;20026;-70
2021/04/27 05:57:12;;;;;;;12.35;9.60;;;12.00;72.90;;;;;;5015005;28;20060;-71
2021/04/27 05:59:37;;;;;;;8.75;7.47;;;12.10;72.30;;;;;;5015021;28;20073;-69
2021/04/27 06:02:03;;;;;;;12.50;8.10;;;12.10;71.50;;;;;;5015199;28;20504;-70
2021/04/27 06:04:29;;;;;;;8.52;6.13;;;12.10;71.20;;;;;;5014821;28;20367;-70
2021/04/27 06:06:55;;;;;;;8.00;6.45;;;12.20;70.90;;;;;;5014711;28;20018;-70
2021/04/27 06:09:21;;;;;;;9.00;6.38;;;12.10;71.20;;;;;;5015123;28;20033;-69
2021/04/27 06:11:46;;;;;;;10.55;6.50;;;12.20;70.60;;;;;;5015184;28;20080;-70
2021/04/27 06:14:12;;;;;;;7.57;6.10;;;12.20;70.20;;;;;;5014986;28;20049;-71
2021/04/27 06:16:38;;;;;;;11.18;6.30;;;12.20;70.20;;;;;;5014785;28;20042;-71
2021/04/27 06:19:04;;;;;;;7.07;5.05;;;12.20;70.50;;;;;;5014778;28;20033;-70
2021/04/27 06:21:30;;;;;;;6.85;5.07;;;12.20;70.50;;;;;;5013963;28;20029;-70
2021/04/27 06:23:56;;;;;;;8.45;5.40;;;12.20;69.50;;;;;;5014619;28;20385;-70
2021/04/27 06:26:22;;;;;;;7.45;5.65;;;12.30;69.40;;;;;;5014490;28;20026;-70
2021/04/27 06:28:48;;;;;;;6.57;4.60;;;12.30;69.20;;;;;;5014446;28;20593;-69
2021/04/27 06:31:14;;;;;;;7.97;4.80;;;12.30;68.90;;;;;;5014448;28;20053;-71
2021/04/27 06:33:40;;;;;;;6.57;3.90;;;12.30;69.10;;;;;;5014040;28;20034;-71
2021/04/27 06:36:05;;;;;;;5.70;4.20;;;12.30;69.10;;;;;;5014060;28;20030;-70
2021/04/27 06:38:31;;;;;;;5.22;3.70;;;12.30;69.10;;;;;;5014066;28;20049;-70
2021/04/27 06:40:57;;;;;;;5.65;3.90;;;12.30;69.40;;;;;;5014398;28;20068;-70
2021/04/27 06:43:23;;;;;;;5.38;3.95;;;12.30;69.10;;;;;;5014471;28;20037;-71
2021/04/27 06:45:49;;;;;;;9.30;3.58;;;12.30;68.80;;;;;;5014501;28;20026;-70
2021/04/27 06:48:15;;;;;;;7.45;3.55;;;12.40;68.40;;;;;;5014488;28;20101;-70
2021/04/27 06:50:43;;;;;;;4.47;3.78;;;12.40;68.20;;;;;;5014617;28;20033;-70
2021/04/27 06:53:09;;;;;;;5.32;3.30;;;12.40;68.00;;;;;;5014376;28;20030;-70
2021/04/27 06:55:36;;;;;;;3.33;2.90;;;12.40;68.00;;;;;;5013751;28;20054;-69
2021/04/27 06:58:07;;;;;;;4.72;3.28;;;12.40;68.30;;;;;;5014219;28;20030;-70
2021/04/27 07:00:33;;;;;;;3.47;2.88;;;12.40;68.40;;;;;;5014432;28;20105;-71
2021/04/27 07:06:21;;;;;;;5.80;2.92;;;12.40;67.90;;;;;;5014223;28;20024;-70
2021/04/27 07:08:47;;;;;;;4.93;3.38;;;12.40;67.80;;;;;;5013579;28;20386;-70
2021/04/27 07:11:13;;;;;;;5.82;3.45;;;12.40;68.00;;;;;;5014112;28;20496;-70
2021/04/27 07:13:38;;;;;;;5.85;2.80;;;12.40;69.20;;;;;;5013888;28;20033;-71
2021/04/27 07:16:04;;;;;;;3.78;2.55;;;12.40;68.90;;;;;;5013633;28;20526;-70
2021/04/27 07:18:30;;;;;;;4.97;2.70;;;12.50;67.90;;;;;;5011153;28;20034;-69
2021/04/27 07:20:56;;;;;;;3.28;2.75;;;12.40;67.60;;;;;;5012718;28;20030;-69
2021/04/27 07:23:22;;;;;;;4.22;2.72;;;12.50;67.50;;;;;;5031609;28;20109;-69
2021/04/27 07:25:48;;;;;;;5.32;2.60;;;12.50;66.90;;;;;;5033364;28;20035;-68
2021/04/27 07:28:14;;;;;;;4.20;2.70;;;12.50;66.60;;;;;;5033372;28;20036;-69
2021/04/27 07:30:40;;;;;;;6.13;2.70;;;12.50;66.60;;;;;;5032087;28;20474;-68
2021/04/27 07:33:06;;;;;;;5.47;2.75;;;12.50;66.00;;;;;;5031752;28;20036;-68
2021/04/27 07:35:32;;;;;;;4.75;2.90;;;12.50;65.80;;;;;;5023798;28;20034;-69
2021/04/27 07:38:01;;;;;;;5.38;3.05;;;12.50;66.10;;;;;;5013138;28;20033;-69
2021/04/27 07:40:32;;;;;;;5.30;2.80;;;12.50;65.80;;;;;;5013387;28;20057;-69
2021/04/27 07:42:59;;;;;;;4.13;2.70;;;12.40;66.20;;;;;;5013458;28;20057;-68
2021/04/27 07:45:30;;;;;;;4.38;2.70;;;12.50;66.90;;;;;;5013011;28;20024;-69
2021/04/27 07:47:57;;;;;;;33.72;5.57;;;12.50;67.20;;;;;;5013165;28;20160;-68
2021/04/27 07:50:23;;;;;;;22.58;4.10;;;12.50;66.60;;;;;;5013185;28;20040;-68
2021/04/27 07:52:48;;;;;;;9.80;3.35;;;12.50;66.60;;;;;;5013206;28;20108;-68
2021/04/27 07:55:14;;;;;;;99.05;9.35;;;12.50;66.40;;;;;;5012740;28;20018;-69
2021/04/27 07:57:40;;;;;;;211.45;19.95;;;12.60;66.00;;;;;;5012684;28;20053;-69
2021/04/27 08:00:08;;;;;;;148.15;12.45;;;12.60;66.10;;;;;;5025592;28;20037;-68
2021/04/27 08:02:34;;;;;;;29.98;4.90;;;12.60;65.60;;;;;;5032895;28;20557;-68
2021/04/27 08:05:00;;;;;;;13.35;3.30;;;12.60;66.00;;;;;;5032801;28;20100;-69
2021/04/27 08:07:26;;;;;;;6.88;2.60;;;12.60;66.10;;;;;;5032764;28;20095;-68
2021/04/27 08:09:52;;;;;;;5.55;2.65;;;12.60;65.90;;;;;;5032870;28;20040;-68
2021/04/27 08:12:17;;;;;;;6.47;2.75;;;12.60;65.50;;;;;;5033083;28;20026;-69
2021/04/27 08:14:43;;;;;;;3.80;3.10;;;12.60;65.00;;;;;;5032681;28;20470;-69
2021/04/27 08:17:09;;;;;;;9.75;2.80;;;12.70;64.90;;;;;;5032580;28;20033;-69
2021/04/27 08:19:35;;;;;;;3.35;2.40;;;12.70;64.70;;;;;;5032968;28;20049;-68
2021/04/27 08:22:01;;;;;;;5.70;2.92;;;12.70;64.70;;;;;;5032444;28;20029;-68
2021/04/27 08:24:27;;;;;;;5.05;3.10;;;12.70;64.90;;;;;;5032393;28;20033;-69
2021/04/27 08:26:53;;;;;;;4.15;2.60;;;12.70;64.60;;;;;;5032507;28;20489;-69
2021/04/27 08:29:19;;;;;;;4.38;2.85;;;12.70;63.90;;;;;;5032143;28;20485;-69
2021/04/27 08:31:44;;;;;;;5.22;2.30;;;12.70;64.30;;;;;;5032373;28;20048;-69
2021/04/27 08:34:10;;;;;;;4.65;3.03;;;12.80;64.10;;;;;;5030857;28;20493;-69
2021/04/27 08:36:36;;;;;;;4.50;2.58;;;12.80;64.60;;;;;;5032620;28;20118;-70
2021/04/27 08:39:03;;;;;;;4.00;3.10;;;12.80;64.80;;;;;;5032114;28;20046;-70
2021/04/27 08:41:29;;;;;;;3.60;2.60;;;12.80;64.40;;;;;;5032804;28;20473;-70
2021/04/27 08:43:54;;;;;;;3.85;2.42;;;12.80;63.80;;;;;;5032366;28;20405;-70
2021/04/27 08:46:20;;;;;;;8.77;2.90;;;12.80;63.80;;;;;;5035777;28;20021;-70
2021/04/27 08:48:46;;;;;;;5.75;3.20;;;12.80;63.30;;;;;;5036187;28;20029;-70
2021/04/27 08:51:13;;;;;;;6.20;2.67;;;12.80;63.60;;;;;;5035264;28;20389;-70
2021/04/27 08:53:39;;;;;;;3.97;2.97;;;12.80;63.50;;;;;;5035107;28;20397;-69
2021/04/27 08:56:05;;;;;;;3.45;2.97;;;12.80;63.60;;;;;;5036561;28;20022;-69
2021/04/27 08:58:31;;;;;;;4.57;2.72;;;12.80;64.00;;;;;;5036197;28;20384;-70
2021/04/27 09:00:57;;;;;;;3.30;2.70;;;12.80;63.50;;;;;;5036081;28;20021;-70
2021/04/27 09:03:22;;;;;;;3.63;2.33;;;12.90;63.80;;;;;;5034800;28;20081;-70
2021/04/27 09:05:48;;;;;;;3.05;2.67;;;12.90;63.70;;;;;;5035733;28;20017;-70
2021/04/27 09:08:14;;;;;;;4.97;2.75;;;12.90;63.60;;;;;;5036084;28;20026;-70
2021/04/27 09:10:43;;;;;;;6.90;2.42;;;12.90;63.50;;;;;;5036310;28;20030;-70
2021/04/27 09:13:14;;;;;;;3.60;2.47;;;12.90;63.30;;;;;;5035999;28;20029;-70
2021/04/27 09:15:46;;;;;;;3.30;2.58;;;12.90;63.20;;;;;;5036118;28;20037;-70
2021/04/27 09:18:34;;;;;;;6.13;3.25;;;12.90;63.20;;;;;;5035918;28;20486;-70
2021/04/27 09:21:08;;;;;;;4.53;2.80;;;12.90;63.30;;;;;;5036004;28;20382;-70
2021/04/27 09:23:36;;;;;;;5.43;2.80;;;13.00;63.90;;;;;;5036099;28;20520;-70
2021/04/27 09:26:20;;;;;;;3.38;2.40;;;13.00;63.60;;;;;;5035984;28;20021;-70
2021/04/27 09:28:47;;;;;;;4.38;2.33;;;13.00;64.10;;;;;;5034395;28;20030;-70
2021/04/27 09:31:24;;;;;;;3.42;2.63;;;13.00;64.30;;;;;;5035612;28;20049;-70
2021/04/27 09:33:51;;;;;;;4.43;2.45;;;13.00;63.30;;;;;;5036003;28;20034;-70
2021/04/27 09:36:19;;;;;;;4.10;2.53;;;13.10;63.40;;;;;;5035728;28;20049;-70
2021/04/27 09:38:45;;;;;;;3.50;2.53;;;13.10;63.50;;;;;;5035747;28;20405;-70
2021/04/27 09:41:11;;;;;;;3.90;2.63;;;13.10;63.60;;;;;;5035839;28;20017;-70
2021/04/27 09:43:44;;;;;;;3.72;2.42;;;13.10;63.50;;;;;;5035523;28;20036;-70
2021/04/27 09:46:13;;;;;;;4.97;2.88;;;13.10;63.10;;;;;;5035641;28;20470;-70
2021/04/27 09:48:39;;;;;;;3.63;2.55;;;13.10;63.20;;;;;;5035692;28;20505;-70
2021/04/27 09:51:14;;;;;;;4.20;2.88;;;13.20;63.30;;;;;;5035609;28;20072;-70
2021/04/27 09:53:42;;;;;;;3.53;2.50;;;13.20;63.30;;;;;;5035671;28;20045;-69
2021/04/27 09:56:09;;;;;;;3.85;2.42;;;13.10;63.40;;;;;;5035274;28;20037;-70
2021/04/27 09:58:36;;;;;;;5.90;2.25;;;13.20;63.60;;;;;;5033897;28;20037;-70
2021/04/27 10:01:02;;;;;;;5.97;2.60;;;13.20;63.90;;;;;;5035235;28;20032;-70
2021/04/27 10:03:28;;;;;;;9.73;2.70;;;13.20;63.70;;;;;;5035781;28;20440;-70
2021/04/27 10:05:55;;;;;;;4.53;2.55;;;13.20;63.90;;;;;;5035226;28;20100;-70
2021/04/27 10:08:23;;;;;;;3.45;2.33;;;13.20;64.20;;;;;;5035112;28;20036;-70
2021/04/27 10:10:49;;;;;;;5.40;2.40;;;13.20;64.00;;;;;;5035245;28;20029;-70
2021/04/27 10:13:15;;;;;;;2.58;2.10;;;13.30;63.20;;;;;;5035234;28;20028;-70
2021/04/27 10:15:42;;;;;;;3.78;2.53;;;13.30;62.90;;;;;;5035320;28;20029;-70
2021/04/27 10:18:09;;;;;;;4.32;2.53;;;13.30;63.00;;;;;;5034832;28;20391;-69
2021/04/27 10:20:35;;;;;;;3.88;2.20;;;13.30;63.20;;;;;;5034962;28;20474;-70
2021/04/27 10:23:06;;;;;;;2.92;2.42;;;13.30;62.40;;;;;;5033789;28;20045;-70
2021/04/27 10:25:32;;;;;;;3.30;2.20;;;13.30;63.10;;;;;;5034764;28;20025;-70
2021/04/27 10:28:06;;;;;;;3.40;2.10;;;13.30;63.10;;;;;;5034814;28;20032;-70
2021/04/27 10:30:35;;;;;;;3.60;2.05;;;13.30;62.40;;;;;;5034903;28;20417;-70
2021/04/27 10:33:04;;;;;;;2.65;1.85;;;13.40;62.50;;;;;;5034960;28;20512;-70
2021/04/27 10:35:35;;;;;;;3.83;2.05;;;13.40;62.30;;;;;;5034884;28;20029;-70
2021/04/27 10:38:06;;;;;;;2.72;2.10;;;13.40;62.20;;;;;;5034611;28;20396;-70
2021/04/27 10:40:40;;;;;;;3.03;1.70;;;13.40;61.80;;;;;;5034188;28;20404;-70
2021/04/27 10:43:36;;;;;;;2.75;1.80;;;13.40;61.40;;;;;;5034659;28;20033;-70
2021/04/27 10:46:07;;;;;;;5.95;2.22;;;13.40;61.80;;;;;;5022063;28;20034;-70
2021/04/27 10:48:40;;;;;;;2.30;1.90;;;13.40;61.80;;;;;;5034251;28;20466;-70
2021/04/27 10:51:21;;;;;;;3.67;2.05;;;13.40;61.80;;;;;;5034416;28;20021;-70
2021/04/27 10:54:15;;;;;;;3.53;2.25;;;13.40;62.60;;;;;;5034431;28;20120;-70
2021/04/27 10:56:46;;;;;;;3.92;2.35;;;13.40;62.50;;;;;;5034439;28;20057;-71
2021/04/27 10:59:13;;;;;;;3.30;2.15;;;13.40;62.30;;;;;;5034089;28;20048;-71
2021/04/27 11:01:41;;;;;;;2.75;2.22;;;13.50;62.20;;;;;;5034108;28;20026;-71
2021/04/27 11:04:26;;;;;;;3.83;2.17;;;13.50;62.60;;;;;;5034201;28;20033;-70
2021/04/27 11:07:11;;;;;;;2.92;1.80;;;13.40;63.30;;;;;;5033868;28;20025;-70
2021/04/27 11:09:39;;;;;;;3.65;1.75;;;13.50;62.70;;;;;;5034021;28;20053;-70
2021/04/27 11:12:30;;;;;;;3.90;1.88;;;13.50;62.50;;;;;;5033828;28;20022;-70
2021/04/27 11:14:59;;;;;;;3.85;2.10;;;13.50;62.30;;;;;;5033835;28;20029;-70
2021/04/27 11:17:57;;;;;;;5.07;1.70;;;13.50;62.40;;;;;;5033502;28;20025;-70
2021/04/27 11:20:42;;;;;;;3.25;2.55;;;13.60;62.80;;;;;;5007518;28;20037;-69
2021/04/27 11:23:08;;;;;;;3.47;1.73;;;13.60;62.00;;;;;;5033607;28;20101;-69
2021/04/27 11:25:34;;;;;;;2.58;1.90;;;13.60;61.80;;;;;;5033441;28;20112;-69
2021/04/27 11:28:01;;;;;;;3.05;2.10;;;13.60;61.60;;;;;;5033449;28;20490;-69
2021/04/27 11:30:35;;;;;;;2.80;1.92;;;13.60;61.30;;;;;;5033928;28;20120;-70
2021/04/27 11:33:05;;;;;;;2.15;1.60;;;13.70;61.10;;;;;;5033741;28;20029;-70
2021/04/27 11:35:42;;;;;;;4.40;1.80;;;13.60;60.70;;;;;;5033298;28;20118;-70
2021/04/27 11:38:08;;;;;;;3.15;1.70;;;13.60;60.60;;;;;;5033550;28;20386;-70
2021/04/27 11:40:36;;;;;;;3.85;1.52;;;13.60;60.50;;;;;;5032011;28;20049;-70
2021/04/27 11:43:12;;;;;;;2.90;1.42;;;13.70;60.70;;;;;;5033105;28;20029;-70
2021/04/27 11:45:39;;;;;;;2.30;1.52;;;13.70;60.00;;;;;;5033176;28;20017;-70
2021/04/27 11:48:08;;;;;;;1.67;1.30;;;13.70;59.90;;;;;;5033241;28;20124;-69
2021/04/27 11:50:34;;;;;;;1.85;1.35;;;13.60;60.20;;;;;;5033054;28;20473;-69
2021/04/27 11:53:07;;;;;;;1.98;1.58;;;13.60;60.30;;;;;;5033175;28;20029;-70
2021/04/27 11:55:50;;;;;;;3.25;1.55;;;13.70;60.50;;;;;;5033178;28;20037;-69
2021/04/27 11:58:22;;;;;;;4.15;1.55;;;13.70;59.90;;;;;;5033109;28;20037;-69
2021/04/27 12:00:49;;;;;;;3.53;1.60;;;13.70;60.00;;;;;;5033038;28;20495;-69
2021/04/27 12:03:47;;;;;;;2.30;1.63;;;13.70;60.10;;;;;;5032938;28;20061;-69
2021/04/27 12:06:16;;;;;;;3.08;1.65;;;13.70;60.20;;;;;;5031868;28;20520;-67
2021/04/27 12:08:53;;;;;;;3.03;1.73;;;13.70;60.10;;;;;;5033394;28;20022;-68
2021/04/27 12:11:30;;;;;;;2.35;1.70;;;13.70;60.40;;;;;;5033364;28;20087;-68
2021/04/27 12:14:09;;;;;;;2.45;1.95;;;13.70;60.30;;;;;;5033477;28;20103;-68
2021/04/27 12:16:37;;;;;;;2.70;2.00;;;13.70;60.40;;;;;;5031974;28;20025;-68
2021/04/27 12:19:23;;;;;;;8.77;1.70;;;13.70;60.40;;;;;;5033254;28;20033;-68
2021/04/27 12:21:51;;;;;;;7.82;2.55;;;13.80;60.20;;;;;;5036861;28;20474;-68
2021/04/27 12:24:20;;;;;;;2.10;1.88;;;13.80;60.40;;;;;;5036863;28;20025;-68
2021/04/27 12:26:54;;;;;;;3.00;1.98;;;13.80;59.80;;;;;;5036905;28;20040;-68
2021/04/27 12:29:30;;;;;;;2.05;1.48;;;13.80;59.80;;;;;;5036771;28;20093;-68
2021/04/27 12:32:03;;;;;;;2.15;1.60;;;13.90;59.10;;;;;;5036691;28;20029;-68
2021/04/27 12:34:29;;;;;;;6.70;1.70;;;13.80;59.30;;;;;;5035491;28;20022;-68
2021/04/27 12:36:55;;;;;;;2.03;1.75;;;13.80;59.20;;;;;;5036260;28;20034;-68
2021/04/27 12:39:23;;;;;;;2.70;1.65;;;13.80;59.20;;;;;;5036444;28;20053;-68
2021/04/27 12:41:51;;;;;;;4.35;1.83;;;13.90;59.40;;;;;;5012849;28;20030;-68
2021/04/27 12:44:27;;;;;;;2.70;1.73;;;13.90;59.80;;;;;;4997216;28;20372;-67
2021/04/27 12:46:54;;;;;;;2.40;2.08;;;13.90;59.40;;;;;;5001731;28;20034;-68
2021/04/27 12:49:38;;;;;;;1.83;1.40;;;13.90;58.90;;;;;;5011013;28;20088;-68
2021/04/27 12:52:14;;;;;;;4.20;1.45;;;13.90;58.90;;;;;;5011435;28;20101;-68